createdAt,value
2022-08-04T00:02:33.840Z,6.25
2022-08-04T00:05:05.467Z,5.97
2022-08-04T00:07:51.143Z,5.45
2022-08-04T00:10:20.498Z,5.93
2022-08-04T00:12:50.168Z,5.38
2022-08-04T00:15:18.136Z,5.45
2022-08-04T00:17:49.281Z,5.90
2022-08-04T00:20:19.523Z,5.57
2022-08-04T00:22:48.717Z,6.05
2022-08-04T00:25:16.880Z,5.60
2022-08-04T00:27:44.101Z,6.10
2022-08-04T00:30:11.336Z,5.25
2022-08-04T00:32:41.511Z,5.97
2022-08-04T00:35:15.080Z,6.00
2022-08-04T00:37:44.885Z,5.68
2022-08-04T00:40:23.936Z,6.05
2022-08-04T00:46:16.021Z,5.88
2022-08-04T00:48:41.587Z,7.05
2022-08-04T00:51:26.019Z,6.60
2022-08-04T00:54:11.583Z,6.63
2022-08-04T00:56:52.389Z,6.40
2022-08-04T01:00:03.876Z,6.80
2022-08-04T01:02:49.577Z,6.88
2022-08-04T01:06:00.105Z,6.40
2022-08-04T01:08:34.673Z,6.70
2022-08-04T01:11:31.847Z,7.03
2022-08-04T01:13:58.632Z,7.18
2022-08-04T01:16:27.208Z,6.72
2022-08-04T01:19:01.161Z,6.47
2022-08-04T01:21:31.034Z,7.00
2022-08-04T01:24:16.674Z,7.25
2022-08-04T01:26:57.647Z,7.22
2022-08-04T01:29:29.314Z,7.45
2022-08-04T01:32:26.079Z,8.27
2022-08-04T01:35:47.224Z,8.75
2022-08-04T01:38:21.636Z,7.72
2022-08-04T01:40:53.892Z,7.60
2022-08-04T01:43:21.700Z,7.82
2022-08-04T01:45:51.601Z,8.68
2022-08-04T01:48:25.152Z,8.40
2022-08-04T01:50:54.366Z,8.13
2022-08-04T01:53:21.605Z,7.85
2022-08-04T01:55:55.339Z,7.75
2022-08-04T01:58:24.889Z,6.78
2022-08-04T02:01:08.602Z,7.43
2022-08-04T02:04:18.104Z,7.38
2022-08-04T02:06:58.333Z,7.32
2022-08-04T02:09:54.502Z,8.02
2022-08-04T02:12:33.313Z,7.90
2022-08-04T02:15:07.981Z,7.57
2022-08-04T02:17:46.505Z,7.78
2022-08-04T02:20:23.321Z,7.95
2022-08-04T02:22:59.701Z,7.72
2022-08-04T02:25:29.683Z,8.30
2022-08-04T02:28:20.842Z,8.40
2022-08-04T02:31:16.412Z,8.07
2022-08-04T02:33:53.943Z,7.93
2022-08-04T02:36:34.865Z,7.38
2022-08-04T02:39:04.830Z,7.53
2022-08-04T02:41:33.651Z,7.60
2022-08-04T02:44:03.826Z,7.50
2022-08-04T02:46:32.347Z,7.40
2022-08-04T02:49:03.148Z,7.85
2022-08-04T02:51:35.810Z,8.38
2022-08-04T02:54:05.599Z,8.85
2022-08-04T02:56:34.642Z,7.95
2022-08-04T02:59:07.903Z,9.30
2022-08-04T03:01:35.281Z,9.68
2022-08-04T03:04:24.547Z,10.23
2022-08-04T03:06:52.285Z,9.85
2022-08-04T03:09:25.205Z,9.13
2022-08-04T03:12:03.956Z,9.65
2022-08-04T03:14:58.581Z,9.75
2022-08-04T03:17:56.179Z,10.55
2022-08-04T03:20:51.093Z,10.85
2022-08-04T03:23:36.795Z,10.48
2022-08-04T03:26:09.802Z,9.20
2022-08-04T03:28:51.967Z,8.75
2022-08-04T03:31:42.663Z,8.15
2022-08-04T03:34:37.523Z,7.93
2022-08-04T03:37:23.367Z,7.80
2022-08-04T03:40:24.125Z,7.05
2022-08-04T03:43:10.336Z,7.32
2022-08-04T03:46:23.405Z,7.05
2022-08-04T03:49:12.909Z,7.95
2022-08-04T03:55:19.777Z,7.43
2022-08-04T03:57:52.570Z,7.38
2022-08-04T04:00:22.017Z,7.72
2022-08-04T04:03:12.045Z,6.80
2022-08-04T04:06:15.562Z,6.32
2022-08-04T04:09:06.724Z,6.38
2022-08-04T04:12:09.443Z,5.20
2022-08-04T04:14:55.156Z,5.68
2022-08-04T04:17:37.358Z,5.75
2022-08-04T04:20:21.940Z,5.50
2022-08-04T04:23:12.359Z,5.35
2022-08-04T04:25:43.461Z,5.00
2022-08-04T04:28:45.023Z,5.20
2022-08-04T04:31:43.836Z,5.07
2022-08-04T04:34:10.909Z,4.63
2022-08-04T04:37:10.026Z,4.22
2022-08-04T04:40:10.399Z,4.03
2022-08-04T04:43:09.812Z,3.80
2022-08-04T04:45:42.798Z,4.50
2022-08-04T04:48:32.341Z,3.88
2022-08-04T04:51:05.446Z,4.68
2022-08-04T04:54:00.599Z,3.55
2022-08-04T04:56:44.209Z,4.18
2022-08-04T04:59:15.723Z,3.42
2022-08-04T05:02:13.019Z,4.28
2022-08-04T05:05:21.533Z,3.80
2022-08-04T05:07:58.622Z,3.97
2022-08-04T05:11:03.045Z,3.72
2022-08-04T05:14:36.651Z,3.88
2022-08-04T05:16:32.497Z,3.40
2022-08-04T05:19:28.833Z,3.60
2022-08-04T05:22:13.908Z,3.60
2022-08-04T05:24:45.321Z,3.50
2022-08-04T05:27:19.629Z,3.53
2022-08-04T05:29:56.821Z,3.58
2022-08-04T05:32:32.884Z,3.20
2022-08-04T05:35:09.515Z,3.55
2022-08-04T05:37:39.159Z,2.60
2022-08-04T05:40:08.720Z,3.08
2022-08-04T05:42:39.821Z,2.60
2022-08-04T05:45:08.883Z,2.90
2022-08-04T05:47:37.349Z,2.70
2022-08-04T05:50:06.137Z,2.75
2022-08-04T05:52:36.549Z,2.50
2022-08-04T05:55:04.796Z,2.17
2022-08-04T05:57:33.051Z,2.10
2022-08-04T06:00:19.541Z,2.70
2022-08-04T06:02:52.985Z,2.63
2022-08-04T06:05:20.454Z,2.40
2022-08-04T06:08:07.718Z,2.60
2022-08-04T06:10:38.578Z,2.40
2022-08-04T06:13:45.330Z,2.30
2022-08-04T06:16:02.815Z,2.40
2022-08-04T06:18:35.333Z,2.40
2022-08-04T06:21:22.714Z,1.83
2022-08-04T06:23:53.620Z,2.30
2022-08-04T06:26:30.173Z,3.67
2022-08-04T06:28:58.070Z,6.82
2022-08-04T06:32:30.605Z,2.40
2022-08-04T06:34:35.305Z,1.80
2022-08-04T06:37:03.526Z,2.08
2022-08-04T06:39:33.192Z,1.92
2022-08-04T06:42:21.737Z,2.25
2022-08-04T06:44:52.021Z,3.50
2022-08-04T06:47:21.581Z,1.92
2022-08-04T06:51:31.939Z,1.95
2022-08-04T06:52:40.129Z,1.90
2022-08-04T06:55:08.323Z,2.28
2022-08-04T06:57:36.890Z,2.10
2022-08-04T07:00:06.388Z,2.65
2022-08-04T07:02:38.972Z,2.55
2022-08-04T07:05:08.614Z,2.67
2022-08-04T07:07:36.976Z,2.20
2022-08-04T07:10:25.129Z,3.92
2022-08-04T07:12:53.009Z,2.30
2022-08-04T07:15:22.715Z,2.45
2022-08-04T07:17:52.247Z,1.77
2022-08-04T07:20:34.103Z,1.80
2022-08-04T07:23:06.499Z,1.88
2022-08-04T07:26:00.278Z,1.70
2022-08-04T07:28:27.563Z,1.73
2022-08-04T07:30:56.052Z,1.70
2022-08-04T07:33:24.685Z,1.83
2022-08-04T07:36:04.928Z,1.85
2022-08-04T07:38:48.234Z,4.15
2022-08-04T07:41:42.510Z,1.73
2022-08-04T07:44:14.469Z,1.80
2022-08-04T07:46:42.985Z,1.55
2022-08-04T07:51:37.449Z,1.90
2022-08-04T07:54:06.244Z,1.33
2022-08-04T07:56:38.061Z,1.63
2022-08-04T07:59:06.407Z,1.20
2022-08-04T08:04:03.101Z,4.85
2022-08-04T08:06:33.248Z,1.17
2022-08-04T08:09:13.576Z,3.30
2022-08-04T08:12:35.252Z,1.77
2022-08-04T08:14:35.583Z,4.38
2022-08-04T08:17:03.519Z,1.10
2022-08-04T08:19:32.821Z,1.25
2022-08-04T08:22:01.452Z,1.20
2022-08-04T08:24:31.168Z,1.10
2022-08-04T08:27:00.459Z,1.60
2022-08-04T08:29:29.807Z,1.17
2022-08-04T08:32:02.688Z,1.25
2022-08-04T08:34:33.023Z,1.10
2022-08-04T08:37:45.261Z,1.30
2022-08-04T08:40:41.106Z,1.25
2022-08-04T08:44:00.629Z,1.20
2022-08-04T08:46:49.496Z,1.10
2022-08-04T08:50:00.764Z,1.23
2022-08-04T08:53:01.036Z,1.20
2022-08-04T08:55:52.383Z,1.40
2022-08-04T08:58:29.505Z,1.02
2022-08-04T09:01:08.694Z,1.30
2022-08-04T09:04:04.974Z,1.20
2022-08-04T09:06:48.541Z,1.20
2022-08-04T09:09:36.607Z,1.40
2022-08-04T09:12:19.198Z,1.30
2022-08-04T09:15:05.626Z,1.77
2022-08-04T09:17:42.275Z,1.50
2022-08-04T09:20:27.818Z,1.42
2022-08-04T09:23:08.113Z,1.02
2022-08-04T09:25:42.818Z,1.05
2022-08-04T09:28:50.816Z,1.30
2022-08-04T09:31:15.316Z,1.10
2022-08-04T09:33:51.655Z,1.48
2022-08-04T09:36:46.557Z,1.35
2022-08-04T09:39:59.878Z,2.03
2022-08-04T09:42:46.033Z,1.30
2022-08-04T09:45:42.590Z,1.35
2022-08-04T09:48:32.611Z,1.40
2022-08-04T09:51:00.245Z,1.42
2022-08-04T09:53:51.503Z,1.13
2022-08-04T09:56:26.911Z,1.60
2022-08-04T09:59:24.282Z,1.60
2022-08-04T10:01:59.949Z,1.30
2022-08-04T10:04:31.198Z,1.33
2022-08-04T10:07:07.446Z,1.40
2022-08-04T10:09:55.839Z,1.50
2022-08-04T10:12:44.916Z,1.27
2022-08-04T10:15:20.925Z,1.30
2022-08-04T10:18:00.665Z,1.40
2022-08-04T10:20:59.004Z,1.30
2022-08-04T10:24:07.697Z,1.10
2022-08-04T10:26:49.101Z,1.10
2022-08-04T10:29:39.205Z,1.05
2022-08-04T10:32:36.944Z,1.20
2022-08-04T10:35:15.986Z,1.10
2022-08-04T10:38:06.455Z,2.22
2022-08-04T10:40:45.583Z,3.90
2022-08-04T10:43:50.773Z,0.93
2022-08-04T10:46:26.379Z,1.33
2022-08-04T10:49:10.330Z,1.23
2022-08-04T10:52:11.410Z,1.10
2022-08-04T10:55:21.599Z,1.58
2022-08-04T10:58:04.511Z,1.40
2022-08-04T11:00:35.848Z,1.20
2022-08-04T11:03:25.367Z,1.23
2022-08-04T11:06:00.802Z,1.60
2022-08-04T11:08:39.013Z,1.50
2022-08-04T11:11:13.254Z,1.20
2022-08-04T11:14:07.025Z,1.23
2022-08-04T11:16:43.230Z,1.30
2022-08-04T11:19:13.139Z,1.20
2022-08-04T11:21:45.093Z,1.40
2022-08-04T11:24:22.952Z,2.08
2022-08-04T11:27:20.177Z,1.60
2022-08-04T11:30:13.225Z,1.70
2022-08-04T11:32:59.391Z,1.75
2022-08-04T11:35:35.676Z,1.20
2022-08-04T11:38:12.763Z,1.35
2022-08-04T11:40:57.692Z,1.43
2022-08-04T11:44:03.175Z,1.20
2022-08-04T11:46:53.345Z,1.20
2022-08-04T11:49:56.857Z,1.17
2022-08-04T11:52:23.008Z,1.40
2022-08-04T11:54:52.711Z,1.20
2022-08-04T11:57:36.324Z,1.33
2022-08-04T12:00:13.419Z,1.17
2022-08-04T12:03:12.079Z,1.42
2022-08-04T12:06:03.771Z,1.17
2022-08-04T12:08:51.898Z,1.20
2022-08-04T12:11:28.636Z,1.50
2022-08-04T12:14:10.338Z,1.30
2022-08-04T12:17:05.102Z,1.70
2022-08-04T12:20:03.755Z,1.30
2022-08-04T12:22:37.077Z,1.58
2022-08-04T12:25:09.835Z,1.77
2022-08-04T12:27:49.548Z,1.55
2022-08-04T12:30:59.730Z,1.33
2022-08-04T12:33:12.873Z,1.70
2022-08-04T12:36:10.130Z,1.30
2022-08-04T12:38:48.699Z,1.17
2022-08-04T12:41:23.682Z,1.20
2022-08-04T12:43:51.148Z,1.30
2022-08-04T12:46:22.745Z,1.23
2022-08-04T12:48:50.795Z,1.33
2022-08-04T12:52:06.617Z,1.20
2022-08-04T12:54:10.355Z,1.38
2022-08-04T12:56:39.013Z,1.50
2022-08-04T12:59:12.732Z,1.33
2022-08-04T13:02:09.426Z,1.70
2022-08-04T13:04:36.456Z,1.60
2022-08-04T13:07:10.009Z,1.33
2022-08-04T13:09:38.302Z,2.25
2022-08-04T13:12:12.444Z,1.85
2022-08-04T13:14:44.639Z,1.45
2022-08-04T13:17:12.427Z,1.58
2022-08-04T13:19:41.838Z,1.60
2022-08-04T13:22:09.419Z,2.72
2022-08-04T13:24:56.939Z,1.90
2022-08-04T13:27:26.832Z,1.38
2022-08-04T13:30:00.602Z,6.00
2022-08-04T13:32:31.769Z,6.35
2022-08-04T13:35:01.956Z,9.30
2022-08-04T13:37:39.460Z,2.15
2022-08-04T13:40:10.136Z,1.80
2022-08-04T13:42:39.094Z,1.50
2022-08-04T13:47:38.329Z,1.50
2022-08-04T13:50:23.653Z,1.38
2022-08-04T13:52:55.732Z,1.90
2022-08-04T13:55:28.588Z,1.40
2022-08-04T13:58:24.381Z,1.80
2022-08-04T14:00:58.702Z,1.73
2022-08-04T14:03:32.603Z,1.45
2022-08-04T14:06:13.580Z,1.40
2022-08-04T14:09:15.515Z,1.60
2022-08-04T14:12:10.893Z,1.40
2022-08-04T14:14:54.256Z,1.52
2022-08-04T14:17:29.833Z,1.60
2022-08-04T14:20:00.719Z,1.70
2022-08-04T14:22:28.988Z,1.50
2022-08-04T14:25:05.098Z,1.58
2022-08-04T14:27:47.648Z,1.30
2022-08-04T14:30:26.803Z,1.25
2022-08-04T14:32:59.363Z,1.15
2022-08-04T14:35:57.481Z,1.23
2022-08-04T14:38:24.720Z,1.13
2022-08-04T14:41:02.789Z,1.20
2022-08-04T14:43:30.107Z,1.27
2022-08-04T14:46:05.158Z,1.80
2022-08-04T14:48:32.262Z,1.20
2022-08-04T14:50:59.169Z,1.23
2022-08-04T14:53:29.443Z,1.10
2022-08-04T14:55:59.065Z,1.40
2022-08-04T14:58:39.009Z,0.98
2022-08-04T15:01:11.756Z,1.45
2022-08-04T15:03:50.453Z,1.40
2022-08-04T15:06:28.690Z,1.50
2022-08-04T15:09:00.374Z,1.50
2022-08-04T15:11:28.712Z,1.30
2022-08-04T15:13:56.784Z,1.40
2022-08-04T15:16:26.231Z,1.30
2022-08-04T15:18:56.887Z,1.40
2022-08-04T15:21:28.293Z,1.35
2022-08-04T15:23:57.337Z,1.30
2022-08-04T15:26:30.144Z,1.50
2022-08-04T15:29:05.523Z,1.40
2022-08-04T15:32:03.815Z,1.30
2022-08-04T15:34:26.229Z,1.40
2022-08-04T15:36:57.110Z,1.75
2022-08-04T15:39:45.262Z,1.10
2022-08-04T15:42:34.619Z,1.30
2022-08-04T15:45:20.970Z,1.70
2022-08-04T15:48:03.231Z,1.20
2022-08-04T15:50:31.122Z,1.17
2022-08-04T15:53:00.975Z,1.17
2022-08-04T15:55:38.521Z,1.60
2022-08-04T15:58:10.889Z,1.65
2022-08-04T16:00:49.888Z,1.30
2022-08-04T16:03:58.447Z,1.33
2022-08-04T16:06:27.512Z,1.42
2022-08-04T16:09:04.936Z,0.95
2022-08-04T16:11:33.108Z,1.05
2022-08-04T16:14:03.027Z,1.40
2022-08-04T16:16:39.720Z,1.52
2022-08-04T16:19:08.441Z,1.45
2022-08-04T16:21:47.071Z,2.13
2022-08-04T16:24:35.277Z,1.55
2022-08-04T16:27:03.855Z,1.50
2022-08-04T16:29:34.575Z,1.40
2022-08-04T16:32:04.715Z,1.30
2022-08-04T16:34:48.628Z,1.45
2022-08-04T16:37:19.312Z,1.60
2022-08-04T16:42:30.415Z,1.45
2022-08-04T16:45:02.035Z,1.27
2022-08-04T16:47:47.280Z,1.40
2022-08-04T16:50:24.780Z,1.40
2022-08-04T16:52:53.981Z,1.25
2022-08-04T16:55:23.832Z,1.35
2022-08-04T16:57:52.580Z,1.30
2022-08-04T17:00:30.762Z,1.63
2022-08-04T17:02:58.025Z,1.95
2022-08-04T17:05:39.426Z,1.50
2022-08-04T17:14:00.892Z,1.50
2022-08-04T17:16:23.887Z,1.40
2022-08-04T17:18:53.721Z,1.40
2022-08-04T17:21:23.940Z,1.80
2022-08-04T17:24:15.325Z,1.73
2022-08-04T17:26:41.415Z,2.53
2022-08-04T17:29:09.475Z,3.45
2022-08-04T17:31:38.177Z,2.85
2022-08-04T17:34:15.788Z,3.60
2022-08-04T17:36:44.000Z,3.88
2022-08-04T17:39:17.294Z,3.70
2022-08-04T17:41:48.657Z,3.90
2022-08-04T17:44:17.797Z,4.43
2022-08-04T17:46:48.396Z,11.10
2022-08-04T17:49:18.510Z,6.88
2022-08-04T17:52:05.579Z,6.50
2022-08-04T17:54:36.596Z,9.07
2022-08-04T17:57:20.227Z,9.52
2022-08-04T17:59:58.826Z,7.60
2022-08-04T18:05:07.534Z,9.02
2022-08-04T18:08:39.151Z,16.40
2022-08-04T18:10:51.626Z,20.92
2022-08-04T18:13:27.322Z,17.88
2022-08-04T18:16:04.979Z,18.45
2022-08-04T18:18:33.270Z,20.02
2022-08-04T18:21:02.813Z,24.85
2022-08-04T18:23:32.802Z,27.60
2022-08-04T18:26:01.830Z,26.05
2022-08-04T18:28:30.825Z,24.60
2022-08-04T18:31:00.439Z,30.67
2022-08-04T18:33:40.677Z,32.00
2022-08-04T18:36:35.311Z,42.95
2022-08-04T18:39:13.010Z,34.05
2022-08-04T18:42:01.384Z,27.73
2022-08-04T18:44:52.307Z,24.70
2022-08-04T18:47:29.587Z,24.02
2022-08-04T18:50:59.886Z,22.55
2022-08-04T18:52:45.330Z,19.52
2022-08-04T18:55:55.690Z,19.20
2022-08-04T18:58:07.015Z,16.85
2022-08-04T19:00:35.025Z,15.93
2022-08-04T19:03:02.356Z,16.13
2022-08-04T19:05:37.732Z,17.45
2022-08-04T19:08:33.396Z,16.45
2022-08-04T19:10:59.888Z,16.77
2022-08-04T19:13:28.169Z,15.90
2022-08-04T19:15:55.155Z,15.10
2022-08-04T19:18:25.831Z,14.18
2022-08-04T19:20:55.541Z,12.95
2022-08-04T19:24:10.812Z,13.73
2022-08-04T19:26:23.796Z,12.65
2022-08-04T19:28:55.184Z,12.70
2022-08-04T19:31:28.401Z,13.73
2022-08-04T19:34:04.895Z,14.82
2022-08-04T19:36:34.726Z,13.68
2022-08-04T19:39:09.394Z,12.98
2022-08-04T19:42:05.194Z,13.93
2022-08-04T19:48:12.268Z,12.75
2022-08-04T19:50:04.645Z,12.80
2022-08-04T19:52:37.568Z,12.45
2022-08-04T19:55:09.806Z,12.20
2022-08-04T19:57:46.126Z,12.57
2022-08-04T20:00:32.808Z,11.98
2022-08-04T20:03:00.830Z,12.73
2022-08-04T20:05:52.933Z,12.70
2022-08-04T20:08:15.434Z,10.98
2022-08-04T20:10:51.579Z,11.38
2022-08-04T20:13:20.848Z,11.25
2022-08-04T20:15:57.431Z,11.70
2022-08-04T20:18:36.763Z,10.43
2022-08-04T20:21:18.919Z,10.95
2022-08-04T20:23:48.413Z,9.73
2022-08-04T20:26:17.313Z,9.68
2022-08-04T20:28:45.957Z,9.25
2022-08-04T20:31:19.007Z,8.73
2022-08-04T20:33:49.333Z,8.80
2022-08-04T20:36:23.088Z,7.53
2022-08-04T20:38:54.635Z,7.72
2022-08-04T20:41:22.398Z,8.40
2022-08-04T20:43:50.261Z,8.00
2022-08-04T20:46:29.354Z,7.22
2022-08-04T20:48:58.361Z,7.38
2022-08-04T20:51:31.960Z,7.05
2022-08-04T20:54:16.763Z,6.43
2022-08-04T20:56:50.726Z,7.15
2022-08-04T20:59:19.758Z,6.20
2022-08-04T21:01:49.446Z,6.72
2022-08-04T21:04:34.701Z,6.35
2022-08-04T21:07:11.215Z,7.18
2022-08-04T21:09:50.019Z,7.20
2022-08-04T21:12:27.378Z,7.28
2022-08-04T21:15:14.090Z,6.60
2022-08-04T21:17:58.385Z,5.95
2022-08-04T21:20:31.593Z,6.88
2022-08-04T21:23:02.004Z,7.25
2022-08-04T21:25:30.875Z,7.28
2022-08-04T21:27:58.529Z,7.60
2022-08-04T21:30:26.848Z,7.50
2022-08-04T21:32:55.063Z,7.65
2022-08-04T21:38:16.517Z,6.72
2022-08-04T21:40:55.539Z,6.18
2022-08-04T21:46:11.415Z,7.40
2022-08-04T21:48:39.456Z,6.78
2022-08-04T21:51:58.807Z,6.32
2022-08-04T21:54:09.616Z,6.53
2022-08-04T21:56:41.948Z,5.97
2022-08-04T21:59:30.628Z,6.80
2022-08-04T22:04:36.639Z,5.82
2022-08-04T22:07:04.699Z,5.53
2022-08-04T22:09:38.484Z,6.18
2022-08-04T22:12:10.373Z,5.57
2022-08-04T22:14:39.522Z,5.40
2022-08-04T22:17:06.573Z,6.10
2022-08-04T22:19:56.009Z,5.43
2022-08-04T22:22:26.215Z,5.75
2022-08-04T22:25:01.420Z,5.97
2022-08-04T22:27:47.345Z,5.90
2022-08-04T22:30:17.076Z,6.60
2022-08-04T22:32:47.030Z,5.45
2022-08-04T22:38:06.715Z,5.30
2022-08-04T22:40:38.619Z,6.20
2022-08-04T22:45:52.508Z,6.78
2022-08-04T22:48:20.535Z,5.40
2022-08-04T22:50:47.752Z,5.78
2022-08-04T22:53:17.947Z,5.68
2022-08-04T22:56:07.543Z,5.60
2022-08-04T22:58:32.660Z,6.00
2022-08-04T23:01:01.099Z,5.40
2022-08-04T23:03:37.665Z,6.10
2022-08-04T23:06:11.748Z,5.95
2022-08-04T23:08:43.213Z,6.10
2022-08-04T23:11:14.690Z,5.68
2022-08-04T23:13:42.077Z,6.32
2022-08-04T23:16:10.595Z,6.50
2022-08-04T23:18:40.109Z,6.10
2022-08-04T23:21:10.355Z,6.15
2022-08-04T23:23:55.470Z,5.85
2022-08-04T23:26:27.765Z,6.18
2022-08-04T23:28:56.613Z,6.53
2022-08-04T23:31:24.644Z,6.40
2022-08-04T23:33:52.356Z,5.97
2022-08-04T23:36:29.936Z,6.40
2022-08-04T23:39:04.216Z,5.97
2022-08-04T23:41:53.479Z,6.25
2022-08-04T23:44:24.888Z,6.53
2022-08-04T23:47:01.028Z,6.43
2022-08-04T23:49:44.214Z,6.03
2022-08-04T23:52:27.621Z,6.65
2022-08-04T23:55:00.254Z,6.65
2022-08-04T23:57:30.832Z,6.25
